createdAt,value
2017-09-30T16:25:39.944Z,97328.45
2017-09-30T16:28:07.485Z,97328.89
2017-09-30T16:30:35.022Z,97337.85
2017-09-30T16:33:02.684Z,97338.05
2017-09-30T16:35:30.243Z,97351.49
2017-09-30T16:37:57.791Z,97346.80
2017-09-30T16:40:25.815Z,97349.67
2017-09-30T16:42:53.546Z,97363.82
2017-09-30T16:45:21.094Z,97378.03
2017-09-30T16:47:49.096Z,97379.09
2017-09-30T16:50:16.628Z,97389.76
2017-09-30T16:52:44.398Z,97387.41
2017-09-30T16:55:12.459Z,97399.12
2017-09-30T16:57:40.047Z,97403.58
2017-09-30T17:00:07.677Z,97414.25
2017-09-30T17:02:35.748Z,97402.14
2017-09-30T17:05:03.514Z,97409.44
2017-09-30T17:07:31.183Z,97411.03
2017-09-30T17:09:59.255Z,97410.95
2017-09-30T17:12:27.018Z,97414.83
2017-09-30T17:14:54.978Z,97406.89
2017-09-30T17:17:23.151Z,97412.27
2017-09-30T17:19:50.919Z,97422.19
2017-09-30T17:22:18.679Z,97418.94
2017-09-30T17:24:46.511Z,97426.80
2017-09-30T17:27:14.213Z,97437.20
2017-09-30T17:29:41.800Z,97438.73
2017-09-30T17:32:09.939Z,97436.91
2017-09-30T17:34:37.665Z,97453.56
2017-09-30T17:37:05.653Z,97451.36
2017-09-30T17:39:33.555Z,97466.23
2017-09-30T17:42:01.316Z,97476.33
2017-09-30T17:44:29.067Z,97477.40
2017-09-30T17:46:57.429Z,97473.82
2017-09-30T17:49:25.106Z,97482.27
2017-09-30T17:51:52.792Z,97489.83
2017-09-30T17:54:20.741Z,97496.31
2017-09-30T17:56:48.808Z,97498.46
2017-09-30T17:59:16.572Z,97503.95
2017-09-30T18:01:44.389Z,97500.27
2017-09-30T18:04:12.112Z,97495.38
2017-09-30T18:06:39.670Z,97501.87
2017-09-30T18:09:07.622Z,97500.66
2017-09-30T18:11:35.314Z,97502.86
2017-09-30T18:14:03.064Z,97509.64
2017-09-30T18:16:30.895Z,97512.28
2017-09-30T18:18:58.596Z,97512.77
2017-09-30T18:21:26.241Z,97512.66
2017-09-30T18:23:53.902Z,97513.20
2017-09-30T18:26:21.679Z,97516.38
2017-09-30T18:28:49.306Z,97519.02
2017-09-30T18:31:17.301Z,97521.91
2017-09-30T18:33:45.164Z,97521.12
2017-09-30T18:36:12.839Z,97526.35
2017-09-30T18:38:40.664Z,97531.46
2017-09-30T18:41:08.468Z,97536.01
2017-09-30T18:43:36.181Z,97537.13
2017-09-30T18:46:04.207Z,97543.23
2017-09-30T18:48:31.849Z,97544.88
2017-09-30T18:50:59.459Z,97546.36
2017-09-30T18:53:27.691Z,97550.73
2017-09-30T18:55:55.365Z,97546.23
2017-09-30T18:58:23.112Z,97554.66
2017-09-30T19:00:50.805Z,97559.70
2017-09-30T19:03:18.638Z,97562.74
2017-09-30T19:05:46.300Z,97565.91
2017-09-30T19:08:13.994Z,97570.59
2017-09-30T19:10:41.828Z,97567.30
2017-09-30T19:13:09.695Z,97573.47
2017-09-30T19:15:38.177Z,97576.13
2017-09-30T19:18:05.954Z,97579.48
2017-09-30T19:20:34.343Z,97577.98
2017-09-30T19:23:02.597Z,97584.23
2017-09-30T19:25:30.255Z,97581.21
2017-09-30T19:27:57.882Z,97589.20
2017-09-30T19:30:26.694Z,97585.94
2017-09-30T19:32:54.516Z,97589.27
2017-09-30T19:35:22.255Z,97594.59
2017-09-30T19:37:50.204Z,97596.73
2017-09-30T19:40:17.979Z,97604.64
2017-09-30T19:42:45.629Z,97607.77
2017-09-30T19:45:13.803Z,97611.91
2017-09-30T19:47:41.669Z,97613.97
2017-09-30T19:50:09.448Z,97621.19
2017-09-30T19:52:37.409Z,97622.42
2017-09-30T19:55:05.173Z,97623.83
2017-09-30T19:57:33.036Z,97633.25
2017-09-30T20:00:01.102Z,97630.80
2017-09-30T20:02:30.105Z,97635.95
2017-09-30T20:04:57.875Z,97633.48
2017-09-30T20:07:26.035Z,97643.66
2017-09-30T20:09:54.298Z,97641.25
2017-09-30T20:12:22.276Z,97639.16
2017-09-30T20:14:50.244Z,97645.90
2017-09-30T20:17:18.032Z,97649.66
2017-09-30T20:19:45.789Z,97648.98
2017-09-30T20:22:13.742Z,97652.95
2017-09-30T20:25:34.037Z,97647.19
2017-09-30T20:28:02.313Z,97655.73
2017-09-30T20:30:30.089Z,97649.90
2017-09-30T20:32:57.943Z,97654.81
2017-09-30T20:35:26.014Z,97653.16
2017-09-30T20:37:54.394Z,97653.30
2017-09-30T20:40:22.682Z,97659.66
2017-09-30T20:42:50.435Z,97656.16
2017-09-30T20:45:18.210Z,97663.27
2017-09-30T20:47:45.960Z,97656.92
2017-09-30T20:50:14.135Z,97656.56
2017-09-30T20:52:41.712Z,97659.84
2017-09-30T20:55:09.355Z,97663.31
2017-09-30T20:57:37.322Z,97665.44
2017-09-30T21:00:04.915Z,97671.19
2017-09-30T21:02:32.555Z,97664.73
2017-09-30T21:05:00.169Z,97667.27
2017-09-30T21:07:27.874Z,97668.84
2017-09-30T21:09:55.431Z,97666.73
2017-09-30T21:12:23.189Z,97667.67
2017-09-30T21:14:50.787Z,97669.05
2017-09-30T21:17:18.354Z,97675.63
2017-09-30T21:19:46.264Z,97674.69
2017-09-30T21:22:13.873Z,97672.33
2017-09-30T21:24:41.907Z,97672.34
2017-09-30T21:27:10.081Z,97676.46
2017-09-30T21:29:38.057Z,97671.04
2017-09-30T21:32:05.825Z,97667.67
2017-09-30T21:34:33.577Z,97665.89
2017-09-30T21:37:01.135Z,97667.36
2017-09-30T21:39:28.722Z,97670.34
2017-09-30T21:41:56.286Z,97672.09
2017-09-30T21:44:23.810Z,97671.27
2017-09-30T21:46:51.322Z,97672.09
2017-09-30T21:49:18.932Z,97672.53
2017-09-30T21:51:46.491Z,97668.59
2017-09-30T21:54:14.014Z,97668.23
2017-09-30T21:56:41.906Z,97669.16
2017-09-30T21:59:09.414Z,97675.55
2017-09-30T22:01:36.942Z,97662.73
2017-09-30T22:04:05.006Z,97670.53
2017-09-30T22:06:32.564Z,97666.96
2017-09-30T22:09:00.146Z,97663.14
2017-09-30T22:11:28.077Z,97664.97
2017-09-30T22:13:55.654Z,97667.14
2017-09-30T22:16:23.209Z,97657.84
2017-09-30T22:18:50.946Z,97660.27
2017-09-30T22:21:18.531Z,97658.94
2017-09-30T22:23:46.090Z,97659.88
2017-09-30T22:26:13.956Z,97661.36
2017-09-30T22:28:41.521Z,97666.13
2017-09-30T22:31:09.179Z,97664.64
2017-09-30T22:33:36.942Z,97665.12
2017-09-30T22:36:04.516Z,97675.84
2017-09-30T22:38:32.058Z,97673.20
2017-09-30T22:40:59.618Z,97673.91
2017-09-30T22:43:27.178Z,97673.48
2017-09-30T22:45:54.683Z,97677.80
2017-09-30T22:48:22.230Z,97672.74
2017-09-30T22:50:49.738Z,97676.55
2017-09-30T22:53:17.253Z,97679.28
2017-09-30T22:55:45.046Z,97675.27
2017-09-30T22:58:12.559Z,97678.68
2017-09-30T23:00:40.092Z,97673.17
2017-09-30T23:03:07.652Z,97674.75
2017-09-30T23:05:35.209Z,97677.09
2017-09-30T23:08:02.801Z,97673.69
2017-09-30T23:10:30.634Z,97677.64
2017-09-30T23:12:58.198Z,97676.31
2017-09-30T23:15:25.705Z,97675.98
2017-09-30T23:17:53.520Z,97676.96
2017-09-30T23:20:21.101Z,97678.31
2017-09-30T23:22:48.636Z,97676.67
2017-09-30T23:25:16.374Z,97675.13
2017-09-30T23:27:43.918Z,97678.42
2017-09-30T23:30:11.426Z,97677.06
2017-09-30T23:32:39.179Z,97674.72
2017-09-30T23:35:06.738Z,97679.91
2017-09-30T23:37:34.298Z,97678.43
2017-09-30T23:40:01.856Z,97673.38
2017-09-30T23:42:29.416Z,97673.80
2017-09-30T23:44:56.940Z,97675.49
2017-09-30T23:47:24.636Z,97675.16
2017-09-30T23:49:52.195Z,97680.53
2017-09-30T23:52:19.784Z,97684.36
2017-09-30T23:54:47.346Z,97685.48
2017-09-30T23:57:14.867Z,97695.48
2017-09-30T23:59:42.454Z,97700.98
